sensor_id;sensor_type;location;lat;lon;timestamp;temperature;humidity
56428;DHT22;42331;53.578;9.760;2023-02-03T00:02:14;5.70;99.90
56428;DHT22;42331;53.578;9.760;2023-02-03T00:04:45;5.70;99.90
56428;DHT22;42331;53.578;9.760;2023-02-03T00:07:16;5.80;99.90
56428;DHT22;42331;53.578;9.760;2023-02-03T00:09:46;5.90;99.90
56428;DHT22;42331;53.578;9.760;2023-02-03T00:12:17;6.00;99.90
56428;DHT22;42331;53.578;9.760;2023-02-03T00:14:48;6.10;99.90
56428;DHT22;42331;53.578;9.760;2023-02-03T00:17:18;6.20;99.90
56428;DHT22;42331;53.578;9.760;2023-02-03T00:19:49;6.20;99.90
56428;DHT22;42331;53.578;9.760;2023-02-03T00:22:20;6.20;99.90
56428;DHT22;42331;53.578;9.760;2023-02-03T00:24:50;6.40;99.90
56428;DHT22;42331;53.578;9.760;2023-02-03T00:27:21;6.50;99.90
56428;DHT22;42331;53.578;9.760;2023-02-03T00:29:52;6.50;99.90
56428;DHT22;42331;53.578;9.760;2023-02-03T00:32:22;6.60;99.90
56428;DHT22;42331;53.578;9.760;2023-02-03T00:34:53;6.80;99.90
56428;DHT22;42331;53.578;9.760;2023-02-03T00:37:24;6.90;99.90
56428;DHT22;42331;53.578;9.760;2023-02-03T00:39:54;6.90;99.90
56428;DHT22;42331;53.578;9.760;2023-02-03T00:42:25;6.90;99.90
56428;DHT22;42331;53.578;9.760;2023-02-03T00:44:56;6.90;99.90
56428;DHT22;42331;53.578;9.760;2023-02-03T00:47:26;7.00;99.90
56428;DHT22;42331;53.578;9.760;2023-02-03T00:49:57;7.00;99.90
56428;DHT22;42331;53.578;9.760;2023-02-03T00:52:28;7.10;99.90
56428;DHT22;42331;53.578;9.760;2023-02-03T00:54:58;7.20;99.90
56428;DHT22;42331;53.578;9.760;2023-02-03T00:57:29;7.10;99.90
56428;DHT22;42331;53.578;9.760;2023-02-03T01:00:00;7.20;99.90
56428;DHT22;42331;53.578;9.760;2023-02-03T01:02:30;7.20;99.90
56428;DHT22;42331;53.578;9.760;2023-02-03T01:05:01;7.20;99.90
56428;DHT22;42331;53.578;9.760;2023-02-03T01:07:32;7.20;99.90
56428;DHT22;42331;53.578;9.760;2023-02-03T01:10:03;7.20;99.90
56428;DHT22;42331;53.578;9.760;2023-02-03T01:12:34;7.20;99.90
56428;DHT22;42331;53.578;9.760;2023-02-03T01:15:05;7.20;99.90
56428;DHT22;42331;53.578;9.760;2023-02-03T01:17:36;7.30;99.90
56428;DHT22;42331;53.578;9.760;2023-02-03T01:20:07;7.30;99.90
56428;DHT22;42331;53.578;9.760;2023-02-03T01:22:41;7.40;99.90
56428;DHT22;42331;53.578;9.760;2023-02-03T01:25:12;7.40;99.90
56428;DHT22;42331;53.578;9.760;2023-02-03T01:27:43;7.40;99.90
56428;DHT22;42331;53.578;9.760;2023-02-03T01:30:13;7.30;99.90
56428;DHT22;42331;53.578;9.760;2023-02-03T01:32:44;7.30;99.90
56428;DHT22;42331;53.578;9.760;2023-02-03T01:35:15;7.40;99.90
56428;DHT22;42331;53.578;9.760;2023-02-03T01:37:46;7.30;99.90
56428;DHT22;42331;53.578;9.760;2023-02-03T01:40:17;7.30;99.90
56428;DHT22;42331;53.578;9.760;2023-02-03T01:42:48;7.30;99.90
56428;DHT22;42331;53.578;9.760;2023-02-03T01:45:18;7.30;99.90
56428;DHT22;42331;53.578;9.760;2023-02-03T01:47:52;7.40;99.90
56428;DHT22;42331;53.578;9.760;2023-02-03T01:50:33;7.30;99.90
56428;DHT22;42331;53.578;9.760;2023-02-03T01:53:09;7.40;99.90
56428;DHT22;42331;53.578;9.760;2023-02-03T01:55:43;7.30;99.90
56428;DHT22;42331;53.578;9.760;2023-02-03T01:58:19;7.40;99.90
56428;DHT22;42331;53.578;9.760;2023-02-03T02:00:51;7.40;99.90
56428;DHT22;42331;53.578;9.760;2023-02-03T02:03:26;7.40;99.90
56428;DHT22;42331;53.578;9.760;2023-02-03T02:06:05;7.40;99.90
56428;DHT22;42331;53.578;9.760;2023-02-03T02:08:37;7.30;99.90
56428;DHT22;42331;53.578;9.760;2023-02-03T02:11:09;7.40;99.90
56428;DHT22;42331;53.578;9.760;2023-02-03T02:13:40;7.30;99.90
56428;DHT22;42331;53.578;9.760;2023-02-03T02:21:40;7.30;99.90
56428;DHT22;42331;53.578;9.760;2023-02-03T02:35:46;7.30;99.90
56428;DHT22;42331;53.578;9.760;2023-02-03T02:44:07;7.40;99.90
56428;DHT22;42331;53.578;9.760;2023-02-03T02:46:45;7.40;99.90
56428;DHT22;42331;53.578;9.760;2023-02-03T02:52:01;7.30;99.90
56428;DHT22;42331;53.578;9.760;2023-02-03T02:54:38;7.30;99.90
56428;DHT22;42331;53.578;9.760;2023-02-03T02:57:12;7.30;99.90
56428;DHT22;42331;53.578;9.760;2023-02-03T02:59:45;7.40;99.90
56428;DHT22;42331;53.578;9.760;2023-02-03T03:02:16;7.40;99.90
56428;DHT22;42331;53.578;9.760;2023-02-03T03:04:48;7.40;99.90
56428;DHT22;42331;53.578;9.760;2023-02-03T03:07:23;7.40;99.90
56428;DHT22;42331;53.578;9.760;2023-02-03T03:10:01;7.40;99.90
56428;DHT22;42331;53.578;9.760;2023-02-03T03:12:37;7.40;99.90
56428;DHT22;42331;53.578;9.760;2023-02-03T03:15:18;7.40;99.90
56428;DHT22;42331;53.578;9.760;2023-02-03T03:20:40;7.40;99.90
56428;DHT22;42331;53.578;9.760;2023-02-03T03:23:23;7.40;99.90
56428;DHT22;42331;53.578;9.760;2023-02-03T03:28:52;7.40;99.90
56428;DHT22;42331;53.578;9.760;2023-02-03T03:31:23;7.40;99.90
56428;DHT22;42331;53.578;9.760;2023-02-03T03:33:55;7.40;99.90
56428;DHT22;42331;53.578;9.760;2023-02-03T03:36:43;7.50;99.90
56428;DHT22;42331;53.578;9.760;2023-02-03T03:39:31;7.50;99.90
56428;DHT22;42331;53.578;9.760;2023-02-03T03:42:37;7.60;99.90
56428;DHT22;42331;53.578;9.760;2023-02-03T03:48:20;7.50;99.90
56428;DHT22;42331;53.578;9.760;2023-02-03T03:50:57;7.50;99.90
56428;DHT22;42331;53.578;9.760;2023-02-03T03:53:31;7.40;99.90
56428;DHT22;42331;53.578;9.760;2023-02-03T03:56:05;7.40;99.90
56428;DHT22;42331;53.578;9.760;2023-02-03T03:58:39;7.40;99.90
56428;DHT22;42331;53.578;9.760;2023-02-03T04:01:12;7.40;99.90
56428;DHT22;42331;53.578;9.760;2023-02-03T04:03:44;7.50;99.90
56428;DHT22;42331;53.578;9.760;2023-02-03T04:06:16;7.40;99.90
56428;DHT22;42331;53.578;9.760;2023-02-03T04:08:46;7.50;99.90
56428;DHT22;42331;53.578;9.760;2023-02-03T04:11:17;7.40;99.90
56428;DHT22;42331;53.578;9.760;2023-02-03T04:14:06;7.40;99.90
56428;DHT22;42331;53.578;9.760;2023-02-03T04:16:37;7.40;99.90
56428;DHT22;42331;53.578;9.760;2023-02-03T04:19:07;7.30;99.90
56428;DHT22;42331;53.578;9.760;2023-02-03T04:21:38;7.40;99.90
56428;DHT22;42331;53.578;9.760;2023-02-03T04:24:09;7.40;99.90
56428;DHT22;42331;53.578;9.760;2023-02-03T04:26:41;7.40;99.90
56428;DHT22;42331;53.578;9.760;2023-02-03T04:29:12;7.30;99.90
56428;DHT22;42331;53.578;9.760;2023-02-03T04:31:43;7.30;99.90
56428;DHT22;42331;53.578;9.760;2023-02-03T04:34:14;7.30;99.90
56428;DHT22;42331;53.578;9.760;2023-02-03T04:36:44;7.30;99.90
56428;DHT22;42331;53.578;9.760;2023-02-03T04:39:15;7.30;99.90
56428;DHT22;42331;53.578;9.760;2023-02-03T04:41:46;7.30;99.90
56428;DHT22;42331;53.578;9.760;2023-02-03T04:44:16;7.30;99.90
56428;DHT22;42331;53.578;9.760;2023-02-03T04:46:47;7.40;99.90
56428;DHT22;42331;53.578;9.760;2023-02-03T04:49:18;7.40;99.90
56428;DHT22;42331;53.578;9.760;2023-02-03T04:51:49;7.40;99.90
56428;DHT22;42331;53.578;9.760;2023-02-03T04:54:20;7.40;99.90
56428;DHT22;42331;53.578;9.760;2023-02-03T04:56:50;7.40;99.90
56428;DHT22;42331;53.578;9.760;2023-02-03T04:59:21;7.40;99.90
56428;DHT22;42331;53.578;9.760;2023-02-03T05:01:52;7.40;99.90
56428;DHT22;42331;53.578;9.760;2023-02-03T05:04:22;7.40;99.90
56428;DHT22;42331;53.578;9.760;2023-02-03T05:06:53;7.40;99.90
56428;DHT22;42331;53.578;9.760;2023-02-03T05:09:25;7.40;99.90
56428;DHT22;42331;53.578;9.760;2023-02-03T05:11:56;7.40;99.90
56428;DHT22;42331;53.578;9.760;2023-02-03T05:14:27;7.40;99.90
56428;DHT22;42331;53.578;9.760;2023-02-03T05:16:57;7.40;99.90
56428;DHT22;42331;53.578;9.760;2023-02-03T05:19:28;7.30;99.90
56428;DHT22;42331;53.578;9.760;2023-02-03T05:22:00;7.30;99.90
56428;DHT22;42331;53.578;9.760;2023-02-03T05:24:30;7.30;99.90
56428;DHT22;42331;53.578;9.760;2023-02-03T05:27:01;7.40;99.90
56428;DHT22;42331;53.578;9.760;2023-02-03T05:29:31;7.40;99.90
56428;DHT22;42331;53.578;9.760;2023-02-03T05:32:02;7.30;99.90
56428;DHT22;42331;53.578;9.760;2023-02-03T05:34:33;7.30;99.90
56428;DHT22;42331;53.578;9.760;2023-02-03T05:37:04;7.30;99.90
56428;DHT22;42331;53.578;9.760;2023-02-03T05:39:34;7.30;99.90
56428;DHT22;42331;53.578;9.760;2023-02-03T05:42:05;7.30;99.90
56428;DHT22;42331;53.578;9.760;2023-02-03T05:44:36;7.30;99.90
56428;DHT22;42331;53.578;9.760;2023-02-03T05:47:06;7.30;99.90
56428;DHT22;42331;53.578;9.760;2023-02-03T05:49:37;7.30;99.90
56428;DHT22;42331;53.578;9.760;2023-02-03T05:52:08;7.40;99.90
56428;DHT22;42331;53.578;9.760;2023-02-03T05:54:38;7.40;99.90
56428;DHT22;42331;53.578;9.760;2023-02-03T05:57:09;7.40;99.90
56428;DHT22;42331;53.578;9.760;2023-02-03T05:59:39;7.40;99.90
56428;DHT22;42331;53.578;9.760;2023-02-03T06:02:10;7.40;99.90
56428;DHT22;42331;53.578;9.760;2023-02-03T06:04:41;7.40;99.90
56428;DHT22;42331;53.578;9.760;2023-02-03T06:07:11;7.40;99.90
56428;DHT22;42331;53.578;9.760;2023-02-03T06:09:42;7.40;99.90
56428;DHT22;42331;53.578;9.760;2023-02-03T06:12:14;7.40;99.90
56428;DHT22;42331;53.578;9.760;2023-02-03T06:14:44;7.40;99.90
56428;DHT22;42331;53.578;9.760;2023-02-03T06:17:15;7.40;99.90
56428;DHT22;42331;53.578;9.760;2023-02-03T06:19:46;7.50;99.90
56428;DHT22;42331;53.578;9.760;2023-02-03T06:22:16;7.40;99.90
56428;DHT22;42331;53.578;9.760;2023-02-03T06:24:47;7.40;99.90
56428;DHT22;42331;53.578;9.760;2023-02-03T06:27:18;7.40;99.90
56428;DHT22;42331;53.578;9.760;2023-02-03T06:29:49;7.40;99.90
56428;DHT22;42331;53.578;9.760;2023-02-03T06:32:19;7.50;99.90
56428;DHT22;42331;53.578;9.760;2023-02-03T06:34:50;7.40;99.90
56428;DHT22;42331;53.578;9.760;2023-02-03T06:37:21;7.50;99.90
56428;DHT22;42331;53.578;9.760;2023-02-03T06:39:51;7.60;99.90
56428;DHT22;42331;53.578;9.760;2023-02-03T06:42:22;7.60;99.90
56428;DHT22;42331;53.578;9.760;2023-02-03T06:44:53;7.60;99.90
56428;DHT22;42331;53.578;9.760;2023-02-03T06:47:24;7.60;99.90
56428;DHT22;42331;53.578;9.760;2023-02-03T06:49:55;7.60;99.90
56428;DHT22;42331;53.578;9.760;2023-02-03T06:52:25;7.70;99.90
56428;DHT22;42331;53.578;9.760;2023-02-03T06:54:56;7.70;99.90
56428;DHT22;42331;53.578;9.760;2023-02-03T06:57:27;7.70;99.90
56428;DHT22;42331;53.578;9.760;2023-02-03T06:59:57;7.80;99.90
56428;DHT22;42331;53.578;9.760;2023-02-03T07:02:28;7.80;99.90
56428;DHT22;42331;53.578;9.760;2023-02-03T07:04:59;7.80;99.90
56428;DHT22;42331;53.578;9.760;2023-02-03T07:07:30;7.80;99.90
56428;DHT22;42331;53.578;9.760;2023-02-03T07:10:02;7.70;99.90
56428;DHT22;42331;53.578;9.760;2023-02-03T07:12:32;7.70;99.90
56428;DHT22;42331;53.578;9.760;2023-02-03T07:15:04;7.80;99.90
56428;DHT22;42331;53.578;9.760;2023-02-03T07:17:34;7.80;99.90
56428;DHT22;42331;53.578;9.760;2023-02-03T07:20:05;7.80;99.90
56428;DHT22;42331;53.578;9.760;2023-02-03T07:22:36;7.80;99.90
56428;DHT22;42331;53.578;9.760;2023-02-03T07:25:08;7.80;99.90
56428;DHT22;42331;53.578;9.760;2023-02-03T07:27:38;7.80;99.90
56428;DHT22;42331;53.578;9.760;2023-02-03T07:30:10;7.90;99.90
56428;DHT22;42331;53.578;9.760;2023-02-03T07:32:40;7.90;99.90
56428;DHT22;42331;53.578;9.760;2023-02-03T07:35:11;7.90;99.90
56428;DHT22;42331;53.578;9.760;2023-02-03T07:37:42;7.90;99.90
56428;DHT22;42331;53.578;9.760;2023-02-03T07:40:14;7.90;99.90
56428;DHT22;42331;53.578;9.760;2023-02-03T07:42:48;7.90;99.90
56428;DHT22;42331;53.578;9.760;2023-02-03T07:45:19;8.00;99.90
56428;DHT22;42331;53.578;9.760;2023-02-03T07:47:51;8.00;99.90
56428;DHT22;42331;53.578;9.760;2023-02-03T07:50:22;8.00;99.90
56428;DHT22;42331;53.578;9.760;2023-02-03T07:52:52;8.00;99.90
56428;DHT22;42331;53.578;9.760;2023-02-03T07:55:25;8.00;99.90
56428;DHT22;42331;53.578;9.760;2023-02-03T07:57:56;8.00;99.90
56428;DHT22;42331;53.578;9.760;2023-02-03T08:00:27;8.00;99.90
56428;DHT22;42331;53.578;9.760;2023-02-03T08:02:58;8.10;99.90
56428;DHT22;42331;53.578;9.760;2023-02-03T08:05:28;8.00;99.90
56428;DHT22;42331;53.578;9.760;2023-02-03T08:07:59;8.00;99.90
56428;DHT22;42331;53.578;9.760;2023-02-03T08:10:30;8.00;99.90
56428;DHT22;42331;53.578;9.760;2023-02-03T08:13:01;8.00;99.90
56428;DHT22;42331;53.578;9.760;2023-02-03T08:15:31;8.10;99.90
56428;DHT22;42331;53.578;9.760;2023-02-03T08:18:02;8.10;99.90
56428;DHT22;42331;53.578;9.760;2023-02-03T08:20:33;8.00;99.90
56428;DHT22;42331;53.578;9.760;2023-02-03T08:23:03;7.80;99.90
56428;DHT22;42331;53.578;9.760;2023-02-03T08:25:34;7.80;99.90
56428;DHT22;42331;53.578;9.760;2023-02-03T08:28:05;7.70;99.90
56428;DHT22;42331;53.578;9.760;2023-02-03T08:30:35;7.70;99.90
56428;DHT22;42331;53.578;9.760;2023-02-03T08:33:06;7.60;99.90
56428;DHT22;42331;53.578;9.760;2023-02-03T08:35:37;7.60;99.90
56428;DHT22;42331;53.578;9.760;2023-02-03T08:38:09;7.50;99.90
56428;DHT22;42331;53.578;9.760;2023-02-03T08:40:40;7.40;99.90
56428;DHT22;42331;53.578;9.760;2023-02-03T08:43:10;7.40;99.90
56428;DHT22;42331;53.578;9.760;2023-02-03T08:45:41;7.40;99.90
56428;DHT22;42331;53.578;9.760;2023-02-03T08:48:13;7.40;99.90
56428;DHT22;42331;53.578;9.760;2023-02-03T08:50:43;7.40;99.90
56428;DHT22;42331;53.578;9.760;2023-02-03T08:53:21;7.50;99.90
56428;DHT22;42331;53.578;9.760;2023-02-03T08:55:52;7.50;99.90
56428;DHT22;42331;53.578;9.760;2023-02-03T08:58:23;7.50;99.90
56428;DHT22;42331;53.578;9.760;2023-02-03T09:00:54;7.50;99.90
56428;DHT22;42331;53.578;9.760;2023-02-03T09:03:25;7.60;99.90
56428;DHT22;42331;53.578;9.760;2023-02-03T09:05:55;7.50;99.90
56428;DHT22;42331;53.578;9.760;2023-02-03T09:08:27;7.50;99.90
56428;DHT22;42331;53.578;9.760;2023-02-03T09:10:58;7.50;99.90
56428;DHT22;42331;53.578;9.760;2023-02-03T09:13:28;7.50;99.90
56428;DHT22;42331;53.578;9.760;2023-02-03T09:16:00;7.50;99.90
56428;DHT22;42331;53.578;9.760;2023-02-03T09:18:31;7.60;99.90
56428;DHT22;42331;53.578;9.760;2023-02-03T09:21:03;7.60;99.90
56428;DHT22;42331;53.578;9.760;2023-02-03T09:23:34;7.50;99.90
56428;DHT22;42331;53.578;9.760;2023-02-03T09:26:11;7.60;99.90
56428;DHT22;42331;53.578;9.760;2023-02-03T09:28:42;7.60;99.90
56428;DHT22;42331;53.578;9.760;2023-02-03T09:31:14;7.60;99.90
56428;DHT22;42331;53.578;9.760;2023-02-03T09:33:47;7.60;99.90
56428;DHT22;42331;53.578;9.760;2023-02-03T09:36:17;7.80;99.90
56428;DHT22;42331;53.578;9.760;2023-02-03T09:38:48;7.70;99.90
56428;DHT22;42331;53.578;9.760;2023-02-03T09:41:47;7.70;99.90
56428;DHT22;42331;53.578;9.760;2023-02-03T09:47:00;7.80;99.90
56428;DHT22;42331;53.578;9.760;2023-02-03T09:49:57;7.80;99.90
56428;DHT22;42331;53.578;9.760;2023-02-03T09:52:32;7.80;99.90
56428;DHT22;42331;53.578;9.760;2023-02-03T09:55:36;7.90;99.90
56428;DHT22;42331;53.578;9.760;2023-02-03T09:58:16;7.90;99.90
56428;DHT22;42331;53.578;9.760;2023-02-03T10:00:51;7.90;99.90
56428;DHT22;42331;53.578;9.760;2023-02-03T10:03:47;7.90;99.90
56428;DHT22;42331;53.578;9.760;2023-02-03T10:06:37;8.00;99.90
56428;DHT22;42331;53.578;9.760;2023-02-03T10:22:36;8.10;99.90
56428;DHT22;42331;53.578;9.760;2023-02-03T10:25:21;8.10;99.90
56428;DHT22;42331;53.578;9.760;2023-02-03T10:27:58;8.20;99.90
56428;DHT22;42331;53.578;9.760;2023-02-03T10:30:40;8.20;99.90
56428;DHT22;42331;53.578;9.760;2023-02-03T10:33:17;8.20;99.90
56428;DHT22;42331;53.578;9.760;2023-02-03T10:41:23;8.20;99.90
56428;DHT22;42331;53.578;9.760;2023-02-03T10:43:54;8.30;99.90
56428;DHT22;42331;53.578;9.760;2023-02-03T10:46:26;8.30;99.90
56428;DHT22;42331;53.578;9.760;2023-02-03T10:48:58;8.30;99.90
56428;DHT22;42331;53.578;9.760;2023-02-03T10:57:04;8.40;99.90
56428;DHT22;42331;53.578;9.760;2023-02-03T10:59:38;8.40;99.90
56428;DHT22;42331;53.578;9.760;2023-02-03T11:05:20;8.60;99.90
56428;DHT22;42331;53.578;9.760;2023-02-03T11:07:52;8.70;99.90
56428;DHT22;42331;53.578;9.760;2023-02-03T11:10:30;9.10;99.90
56428;DHT22;42331;53.578;9.760;2023-02-03T11:13:14;9.10;99.90
56428;DHT22;42331;53.578;9.760;2023-02-03T11:21:19;8.70;99.90
56428;DHT22;42331;53.578;9.760;2023-02-03T11:23:55;8.70;99.90
56428;DHT22;42331;53.578;9.760;2023-02-03T11:26:32;8.70;99.90
56428;DHT22;42331;53.578;9.760;2023-02-03T11:29:04;8.80;99.90
56428;DHT22;42331;53.578;9.760;2023-02-03T11:31:37;8.70;99.90
56428;DHT22;42331;53.578;9.760;2023-02-03T11:34:16;8.70;99.90
56428;DHT22;42331;53.578;9.760;2023-02-03T11:36:49;8.70;99.90
56428;DHT22;42331;53.578;9.760;2023-02-03T11:39:28;8.70;99.90
56428;DHT22;42331;53.578;9.760;2023-02-03T11:42:20;8.70;99.90
56428;DHT22;42331;53.578;9.760;2023-02-03T11:45:12;8.60;99.90
56428;DHT22;42331;53.578;9.760;2023-02-03T11:47:48;8.60;99.90
56428;DHT22;42331;53.578;9.760;2023-02-03T11:56:29;8.70;99.90
56428;DHT22;42331;53.578;9.760;2023-02-03T12:07:29;8.90;99.90
56428;DHT22;42331;53.578;9.760;2023-02-03T12:19:03;8.90;99.90
56428;DHT22;42331;53.578;9.760;2023-02-03T12:24:22;8.70;99.90
56428;DHT22;42331;53.578;9.760;2023-02-03T12:29:46;8.60;99.90
56428;DHT22;42331;53.578;9.760;2023-02-03T12:32:36;8.50;99.90
56428;DHT22;42331;53.578;9.760;2023-02-03T12:35:19;8.50;99.90
56428;DHT22;42331;53.578;9.760;2023-02-03T12:40:42;8.50;99.90
56428;DHT22;42331;53.578;9.760;2023-02-03T12:46:26;8.50;99.90
56428;DHT22;42331;53.578;9.760;2023-02-03T12:49:03;8.50;99.90
56428;DHT22;42331;53.578;9.760;2023-02-03T12:51:42;8.40;99.90
56428;DHT22;42331;53.578;9.760;2023-02-03T12:54:32;8.30;99.90
56428;DHT22;42331;53.578;9.760;2023-02-03T12:57:34;8.30;99.90
56428;DHT22;42331;53.578;9.760;2023-02-03T13:00:20;8.30;99.90
56428;DHT22;42331;53.578;9.760;2023-02-03T13:11:32;8.20;99.90
56428;DHT22;42331;53.578;9.760;2023-02-03T13:14:25;8.20;99.90
56428;DHT22;42331;53.578;9.760;2023-02-03T13:17:28;8.30;99.90
56428;DHT22;42331;53.578;9.760;2023-02-03T13:20:05;8.20;99.90
56428;DHT22;42331;53.578;9.760;2023-02-03T13:22:45;8.20;99.90
56428;DHT22;42331;53.578;9.760;2023-02-03T13:25:22;8.10;99.90
56428;DHT22;42331;53.578;9.760;2023-02-03T13:28:32;8.10;99.90
56428;DHT22;42331;53.578;9.760;2023-02-03T13:37:20;8.10;99.90
56428;DHT22;42331;53.578;9.760;2023-02-03T13:42:40;8.10;99.90
56428;DHT22;42331;53.578;9.760;2023-02-03T13:45:26;8.10;99.90
56428;DHT22;42331;53.578;9.760;2023-02-03T13:48:24;8.10;99.90
56428;DHT22;42331;53.578;9.760;2023-02-03T13:51:16;8.10;99.90
56428;DHT22;42331;53.578;9.760;2023-02-03T13:53:48;8.00;99.90
56428;DHT22;42331;53.578;9.760;2023-02-03T13:56:22;8.00;99.90
56428;DHT22;42331;53.578;9.760;2023-02-03T14:01:43;7.90;99.90
56428;DHT22;42331;53.578;9.760;2023-02-03T14:07:01;7.80;99.90
56428;DHT22;42331;53.578;9.760;2023-02-03T14:09:38;7.80;99.90
56428;DHT22;42331;53.578;9.760;2023-02-03T14:12:35;7.90;99.90
56428;DHT22;42331;53.578;9.760;2023-02-03T14:20:40;7.70;99.90
56428;DHT22;42331;53.578;9.760;2023-02-03T14:23:27;7.80;99.90
56428;DHT22;42331;53.578;9.760;2023-02-03T14:26:03;7.80;99.90
56428;DHT22;42331;53.578;9.760;2023-02-03T14:28:42;7.80;99.90
56428;DHT22;42331;53.578;9.760;2023-02-03T14:31:24;7.70;99.90
56428;DHT22;42331;53.578;9.760;2023-02-03T14:34:05;7.70;99.90
56428;DHT22;42331;53.578;9.760;2023-02-03T14:36:47;7.70;99.90
56428;DHT22;42331;53.578;9.760;2023-02-03T14:45:25;7.80;99.90
56428;DHT22;42331;53.578;9.760;2023-02-03T14:54:28;7.80;99.90
56428;DHT22;42331;53.578;9.760;2023-02-03T14:59:58;7.70;99.90
56428;DHT22;42331;53.578;9.760;2023-02-03T15:02:32;7.70;99.90
56428;DHT22;42331;53.578;9.760;2023-02-03T15:07:47;7.60;99.90
56428;DHT22;42331;53.578;9.760;2023-02-03T15:13:29;7.70;99.90
56428;DHT22;42331;53.578;9.760;2023-02-03T15:16:02;7.70;99.90
56428;DHT22;42331;53.578;9.760;2023-02-03T15:18:35;7.70;99.90
56428;DHT22;42331;53.578;9.760;2023-02-03T15:21:18;7.60;99.90
56428;DHT22;42331;53.578;9.760;2023-02-03T15:23:49;7.70;99.90
56428;DHT22;42331;53.578;9.760;2023-02-03T15:26:22;7.60;99.90
56428;DHT22;42331;53.578;9.760;2023-02-03T15:28:57;7.60;99.90
56428;DHT22;42331;53.578;9.760;2023-02-03T15:31:48;7.60;99.90
56428;DHT22;42331;53.578;9.760;2023-02-03T15:34:22;7.60;99.90
56428;DHT22;42331;53.578;9.760;2023-02-03T15:37:01;7.60;99.90
56428;DHT22;42331;53.578;9.760;2023-02-03T15:39:50;7.60;99.90
56428;DHT22;42331;53.578;9.760;2023-02-03T15:42:35;7.60;99.90
56428;DHT22;42331;53.578;9.760;2023-02-03T15:45:14;7.60;99.90
56428;DHT22;42331;53.578;9.760;2023-02-03T15:47:58;7.60;99.90
56428;DHT22;42331;53.578;9.760;2023-02-03T15:51:03;7.60;99.90
56428;DHT22;42331;53.578;9.760;2023-02-03T15:53:30;7.60;99.90
56428;DHT22;42331;53.578;9.760;2023-02-03T15:56:03;7.60;99.90
56428;DHT22;42331;53.578;9.760;2023-02-03T15:58:43;7.60;99.90
56428;DHT22;42331;53.578;9.760;2023-02-03T16:01:19;7.50;99.90
56428;DHT22;42331;53.578;9.760;2023-02-03T16:03:53;7.50;99.90
56428;DHT22;42331;53.578;9.760;2023-02-03T16:06:30;7.60;99.90
56428;DHT22;42331;53.578;9.760;2023-02-03T16:09:22;7.50;99.90
56428;DHT22;42331;53.578;9.760;2023-02-03T16:14:36;7.50;99.90
56428;DHT22;42331;53.578;9.760;2023-02-03T16:17:36;7.50;99.90
56428;DHT22;42331;53.578;9.760;2023-02-03T16:22:42;7.50;99.90
56428;DHT22;42331;53.578;9.760;2023-02-03T16:25:25;7.50;99.90
56428;DHT22;42331;53.578;9.760;2023-02-03T16:31:00;7.50;99.90
56428;DHT22;42331;53.578;9.760;2023-02-03T16:33:50;7.50;99.90
56428;DHT22;42331;53.578;9.760;2023-02-03T16:36:41;7.50;99.90
56428;DHT22;42331;53.578;9.760;2023-02-03T16:39:30;7.50;99.90
56428;DHT22;42331;53.578;9.760;2023-02-03T16:42:20;7.50;99.90
56428;DHT22;42331;53.578;9.760;2023-02-03T16:45:16;7.60;99.90
56428;DHT22;42331;53.578;9.760;2023-02-03T16:48:07;7.50;99.90
56428;DHT22;42331;53.578;9.760;2023-02-03T16:51:03;7.50;99.90
56428;DHT22;42331;53.578;9.760;2023-02-03T16:53:34;7.40;99.90
56428;DHT22;42331;53.578;9.760;2023-02-03T16:56:05;7.40;99.90
56428;DHT22;42331;53.578;9.760;2023-02-03T16:58:36;7.40;99.90
56428;DHT22;42331;53.578;9.760;2023-02-03T17:01:07;7.40;99.90
56428;DHT22;42331;53.578;9.760;2023-02-03T17:03:41;7.40;99.90
56428;DHT22;42331;53.578;9.760;2023-02-03T17:06:13;7.40;99.90
56428;DHT22;42331;53.578;9.760;2023-02-03T17:08:44;7.40;99.90
56428;DHT22;42331;53.578;9.760;2023-02-03T17:11:17;7.40;99.90
56428;DHT22;42331;53.578;9.760;2023-02-03T17:13:49;7.30;99.90
56428;DHT22;42331;53.578;9.760;2023-02-03T17:16:22;7.30;99.90
56428;DHT22;42331;53.578;9.760;2023-02-03T17:18:55;7.40;99.90
56428;DHT22;42331;53.578;9.760;2023-02-03T17:21:28;7.50;99.90
56428;DHT22;42331;53.578;9.760;2023-02-03T17:24:02;7.30;99.90
56428;DHT22;42331;53.578;9.760;2023-02-03T17:26:32;7.40;99.90
56428;DHT22;42331;53.578;9.760;2023-02-03T17:29:03;7.40;99.90
56428;DHT22;42331;53.578;9.760;2023-02-03T17:31:34;7.40;99.90
56428;DHT22;42331;53.578;9.760;2023-02-03T17:34:05;7.40;99.90
56428;DHT22;42331;53.578;9.760;2023-02-03T17:36:39;7.40;99.90
56428;DHT22;42331;53.578;9.760;2023-02-03T17:39:18;7.40;99.90
56428;DHT22;42331;53.578;9.760;2023-02-03T17:41:51;7.40;99.90
56428;DHT22;42331;53.578;9.760;2023-02-03T17:44:25;7.40;99.90
56428;DHT22;42331;53.578;9.760;2023-02-03T17:46:55;7.40;99.90
56428;DHT22;42331;53.578;9.760;2023-02-03T17:49:26;7.30;99.90
56428;DHT22;42331;53.578;9.760;2023-02-03T17:51:57;7.20;99.90
56428;DHT22;42331;53.578;9.760;2023-02-03T17:54:28;7.00;99.90
56428;DHT22;42331;53.578;9.760;2023-02-03T17:56:58;6.80;99.90
56428;DHT22;42331;53.578;9.760;2023-02-03T17:59:29;6.80;99.90
56428;DHT22;42331;53.578;9.760;2023-02-03T18:02:00;6.60;99.90
56428;DHT22;42331;53.578;9.760;2023-02-03T18:04:31;6.50;99.90
56428;DHT22;42331;53.578;9.760;2023-02-03T18:07:01;6.40;99.90
56428;DHT22;42331;53.578;9.760;2023-02-03T18:09:32;6.30;99.90
56428;DHT22;42331;53.578;9.760;2023-02-03T18:12:03;6.30;99.90
56428;DHT22;42331;53.578;9.760;2023-02-03T18:14:34;6.30;99.90
56428;DHT22;42331;53.578;9.760;2023-02-03T18:17:04;6.30;99.90
56428;DHT22;42331;53.578;9.760;2023-02-03T18:19:35;6.30;99.90
56428;DHT22;42331;53.578;9.760;2023-02-03T18:22:06;6.30;99.90
56428;DHT22;42331;53.578;9.760;2023-02-03T18:24:37;6.30;99.90
56428;DHT22;42331;53.578;9.760;2023-02-03T18:27:09;6.30;99.90
56428;DHT22;42331;53.578;9.760;2023-02-03T18:29:47;6.30;99.90
56428;DHT22;42331;53.578;9.760;2023-02-03T18:32:18;6.30;99.90
56428;DHT22;42331;53.578;9.760;2023-02-03T18:34:49;6.30;99.90
56428;DHT22;42331;53.578;9.760;2023-02-03T18:37:20;6.30;99.90
56428;DHT22;42331;53.578;9.760;2023-02-03T18:39:50;6.30;99.90
56428;DHT22;42331;53.578;9.760;2023-02-03T18:42:21;6.30;99.90
56428;DHT22;42331;53.578;9.760;2023-02-03T18:44:52;6.30;99.90
56428;DHT22;42331;53.578;9.760;2023-02-03T18:47:22;6.30;99.90
56428;DHT22;42331;53.578;9.760;2023-02-03T18:49:53;6.30;99.90
56428;DHT22;42331;53.578;9.760;2023-02-03T18:52:24;6.40;99.90
56428;DHT22;42331;53.578;9.760;2023-02-03T18:54:54;6.40;99.90
56428;DHT22;42331;53.578;9.760;2023-02-03T18:57:25;6.50;99.90
56428;DHT22;42331;53.578;9.760;2023-02-03T18:59:56;6.50;99.90
56428;DHT22;42331;53.578;9.760;2023-02-03T19:02:26;6.50;99.90
56428;DHT22;42331;53.578;9.760;2023-02-03T19:04:57;6.50;99.90
56428;DHT22;42331;53.578;9.760;2023-02-03T19:07:31;6.50;99.90
56428;DHT22;42331;53.578;9.760;2023-02-03T19:10:01;6.40;99.90
56428;DHT22;42331;53.578;9.760;2023-02-03T19:12:45;6.40;99.90
56428;DHT22;42331;53.578;9.760;2023-02-03T19:18:54;6.40;99.90